Time;durP1;ratioP1;P1;durP2;ratioP2;P2;SDS_P1;SDS_P2;PMS_P1;PMS_P2;Temp;Humidity;BMP_temperature;BMP_pressure;BME280_temperature;BME280_humidity;BME280_pressure;Samples;Min_cycle;Max_cycle;Signal;HPM_P1;HPM_P2
2021/09/04 00:01:12;;;;;;;16.38;10.32;;;10.00;99.90;;;;;;5096171;28;20031;-78
2021/09/04 00:03:38;;;;;;;14.27;9.25;;;10.00;99.90;;;;;;5095668;28;20023;-78
2021/09/04 00:06:04;;;;;;;11.52;9.00;;;9.90;99.90;;;;;;5080290;28;20382;-78
2021/09/04 00:08:30;;;;;;;13.07;9.20;;;9.90;99.90;;;;;;5082431;28;20109;-78
2021/09/04 00:10:55;;;;;;;12.00;8.95;;;9.80;99.90;;;;;;5106297;28;20020;-78
2021/09/04 00:13:21;;;;;;;11.45;8.77;;;9.90;99.90;;;;;;5085567;28;20021;-78
2021/09/04 00:15:47;;;;;;;13.23;8.73;;;9.80;99.90;;;;;;5100708;28;20055;-78
2021/09/04 00:18:13;;;;;;;11.38;8.52;;;9.90;99.90;;;;;;5080090;28;20110;-78
2021/09/04 00:20:38;;;;;;;16.02;8.77;;;9.80;99.90;;;;;;5095732;28;20027;-78
2021/09/04 00:23:04;;;;;;;15.65;9.43;;;9.80;99.90;;;;;;5109770;28;20028;-78
2021/09/04 00:25:30;;;;;;;10.27;8.90;;;9.80;99.90;;;;;;5096191;28;20040;-78
2021/09/04 00:27:56;;;;;;;13.13;9.98;;;9.70;99.90;;;;;;5095622;28;20032;-79
2021/09/04 00:30:21;;;;;;;12.90;9.05;;;9.70;99.90;;;;;;5095670;28;20089;-78
2021/09/04 00:32:47;;;;;;;11.55;8.60;;;9.60;99.90;;;;;;5106099;28;20020;-78
2021/09/04 00:35:13;;;;;;;11.18;8.60;;;9.60;99.90;;;;;;5074066;28;20021;-78
2021/09/04 00:37:38;;;;;;;9.30;6.93;;;9.60;99.90;;;;;;5073953;28;20059;-78
2021/09/04 00:40:05;;;;;;;7.63;6.07;;;9.40;99.90;;;;;;5073928;28;20115;-78
2021/09/04 00:42:31;;;;;;;10.02;7.70;;;9.30;99.90;;;;;;5073926;28;20074;-78
2021/09/04 00:44:57;;;;;;;9.10;7.18;;;9.20;99.90;;;;;;5073821;28;20028;-78
2021/09/04 00:47:23;;;;;;;11.60;8.13;;;9.10;99.90;;;;;;5074982;28;20385;-78
2021/09/04 00:49:49;;;;;;;9.55;7.82;;;9.10;99.90;;;;;;5075000;28;20025;-78
2021/09/04 00:52:16;;;;;;;12.90;8.68;;;9.10;99.90;;;;;;5074949;28;20082;-78
2021/09/04 00:54:43;;;;;;;11.20;8.40;;;9.20;99.90;;;;;;5086239;28;20032;-78
2021/09/04 00:57:09;;;;;;;13.02;8.85;;;9.20;99.90;;;;;;5075025;28;20036;-79
2021/09/04 00:59:35;;;;;;;13.32;9.18;;;9.10;99.90;;;;;;5094860;28;20031;-79
2021/09/04 01:02:00;;;;;;;10.75;8.07;;;9.10;99.90;;;;;;5109253;28;20028;-79
2021/09/04 01:04:27;;;;;;;12.00;9.68;;;9.10;99.90;;;;;;5073402;28;20017;-79
2021/09/04 01:06:52;;;;;;;12.32;9.48;;;9.10;99.90;;;;;;5074733;28;20032;-78
2021/09/04 01:09:19;;;;;;;11.73;9.55;;;9.10;99.90;;;;;;5091040;28;20058;-78
2021/09/04 01:11:45;;;;;;;13.43;10.15;;;9.10;99.90;;;;;;5109499;28;20073;-78
2021/09/04 01:14:11;;;;;;;15.75;10.77;;;9.10;99.90;;;;;;5093542;28;20021;-78
2021/09/04 01:16:43;;;;;;;16.00;11.18;;;9.10;99.90;;;;;;5089041;28;20103;-78
2021/09/04 01:19:09;;;;;;;15.60;10.52;;;9.10;99.90;;;;;;5089539;28;20032;-78
2021/09/04 01:21:37;;;;;;;17.08;11.23;;;9.10;99.90;;;;;;5074345;28;20039;-78
2021/09/04 01:24:05;;;;;;;13.70;10.00;;;9.10;99.90;;;;;;5085797;28;20032;-78
2021/09/04 01:26:32;;;;;;;16.35;9.98;;;9.10;99.90;;;;;;5093250;28;20046;-78
2021/09/04 01:28:58;;;;;;;14.27;9.23;;;9.10;99.90;;;;;;5082335;28;20032;-78
2021/09/04 01:31:26;;;;;;;13.38;9.48;;;9.00;99.90;;;;;;5074263;28;20024;-78
2021/09/04 01:33:52;;;;;;;11.18;9.10;;;9.00;99.90;;;;;;5074415;28;20029;-78
2021/09/04 01:36:33;;;;;;;12.57;9.00;;;9.00;99.90;;;;;;5072826;28;20024;-78
2021/09/04 01:38:59;;;;;;;9.27;7.78;;;9.00;99.90;;;;;;5083542;28;20073;-78
2021/09/04 01:41:26;;;;;;;9.45;7.88;;;8.90;99.90;;;;;;5093971;28;20032;-78
2021/09/04 01:43:52;;;;;;;10.75;7.75;;;8.90;99.90;;;;;;5094160;28;20016;-78
2021/09/04 01:46:18;;;;;;;9.60;7.45;;;8.80;99.90;;;;;;5092875;28;20481;-78
2021/09/04 01:48:43;;;;;;;10.63;8.27;;;8.80;99.90;;;;;;5092707;28;20038;-78
2021/09/04 01:51:09;;;;;;;8.98;8.07;;;8.80;99.90;;;;;;5092831;28;20012;-78
2021/09/04 01:53:35;;;;;;;9.10;7.80;;;8.80;99.90;;;;;;5092657;28;20044;-78
2021/09/04 01:56:01;;;;;;;10.73;8.05;;;8.80;99.90;;;;;;5093912;28;20035;-78
2021/09/04 01:58:26;;;;;;;13.13;9.57;;;8.90;99.90;;;;;;5109709;28;20032;-79
2021/09/04 02:00:52;;;;;;;10.27;8.45;;;8.90;99.90;;;;;;5093830;28;20034;-78
2021/09/04 02:03:18;;;;;;;10.05;8.32;;;8.90;99.90;;;;;;5093863;28;20089;-78
2021/09/04 02:05:45;;;;;;;11.50;8.23;;;8.90;99.90;;;;;;5075740;28;20033;-78
2021/09/04 02:08:10;;;;;;;16.33;10.90;;;9.00;99.90;;;;;;5109477;28;20043;-78
2021/09/04 02:10:36;;;;;;;15.95;11.25;;;9.00;99.90;;;;;;5093226;28;20560;-78
2021/09/04 02:13:02;;;;;;;11.82;9.07;;;9.00;99.90;;;;;;5090917;28;20031;-78
2021/09/04 02:15:28;;;;;;;12.95;8.27;;;9.00;99.90;;;;;;5082145;28;20430;-78
2021/09/04 02:17:53;;;;;;;12.48;8.32;;;9.00;99.90;;;;;;5075190;28;20028;-78
2021/09/04 02:20:19;;;;;;;11.98;8.93;;;8.90;99.90;;;;;;5085998;28;20024;-78
2021/09/04 02:22:45;;;;;;;12.57;8.77;;;8.90;99.90;;;;;;5091604;28;20020;-78
2021/09/04 02:25:11;;;;;;;11.05;9.95;;;8.80;99.90;;;;;;5100179;28;20365;-78
2021/09/04 02:27:37;;;;;;;10.57;8.82;;;8.80;99.90;;;;;;5112311;28;20031;-78
2021/09/04 02:30:05;;;;;;;11.80;8.93;;;8.80;99.90;;;;;;5096317;28;20043;-78
2021/09/04 02:32:32;;;;;;;12.55;8.75;;;8.80;99.90;;;;;;5108739;28;20435;-78
2021/09/04 02:34:58;;;;;;;9.90;8.35;;;8.80;99.90;;;;;;5092038;28;20016;-77
2021/09/04 02:37:23;;;;;;;10.07;9.02;;;8.80;99.90;;;;;;5092925;28;20024;-77
2021/09/04 02:39:49;;;;;;;13.20;8.55;;;8.70;99.90;;;;;;5093136;28;20032;-77
2021/09/04 02:42:15;;;;;;;10.48;8.40;;;8.80;99.90;;;;;;5093318;28;20056;-79
2021/09/04 02:44:42;;;;;;;12.57;8.35;;;8.80;99.90;;;;;;5081129;28;20039;-78
2021/09/04 02:47:08;;;;;;;11.25;8.40;;;8.80;99.90;;;;;;5080879;28;20016;-78
2021/09/04 02:49:33;;;;;;;12.40;9.27;;;8.70;99.90;;;;;;5089289;28;20097;-78
2021/09/04 02:51:59;;;;;;;12.57;10.05;;;8.70;99.90;;;;;;5093835;28;20436;-78
2021/09/04 02:54:25;;;;;;;14.18;9.73;;;8.70;99.90;;;;;;5080071;28;20028;-78
2021/09/04 02:56:50;;;;;;;18.35;10.32;;;8.70;99.90;;;;;;5091712;28;20024;-78
2021/09/04 02:59:16;;;;;;;16.20;10.30;;;8.70;99.90;;;;;;5085665;28;20119;-77
2021/09/04 03:01:42;;;;;;;14.27;10.10;;;8.70;99.90;;;;;;5082595;28;20021;-78
2021/09/04 03:04:08;;;;;;;15.65;11.75;;;8.70;99.90;;;;;;5086161;28;20024;-77
2021/09/04 03:06:33;;;;;;;17.45;11.85;;;8.70;99.90;;;;;;5092721;28;20458;-79
2021/09/04 03:08:59;;;;;;;16.60;10.75;;;8.70;99.90;;;;;;5088522;28;20035;-78
2021/09/04 03:11:25;;;;;;;17.30;10.90;;;8.70;99.90;;;;;;5077945;28;20501;-78
2021/09/04 03:13:51;;;;;;;20.98;12.93;;;8.60;99.90;;;;;;5078549;28;20101;-78
2021/09/04 03:16:17;;;;;;;20.35;12.07;;;8.60;99.90;;;;;;5078731;28;20071;-77
2021/09/04 03:18:42;;;;;;;23.60;13.75;;;8.60;99.90;;;;;;5084003;28;20020;-78
2021/09/04 03:21:09;;;;;;;28.00;14.63;;;8.60;99.90;;;;;;5092892;28;20104;-78
2021/09/04 03:23:34;;;;;;;48.60;18.55;;;8.60;99.90;;;;;;5084727;28;20077;-79
2021/09/04 03:26:00;;;;;;;45.35;19.73;;;8.60;99.90;;;;;;5092750;28;20040;-79
2021/09/04 03:28:26;;;;;;;40.03;17.80;;;8.60;99.90;;;;;;5088319;28;20111;-79
2021/09/04 03:30:52;;;;;;;50.78;21.60;;;8.60;99.90;;;;;;5077314;28;20024;-79
2021/09/04 03:33:17;;;;;;;50.40;19.13;;;8.60;99.90;;;;;;5089607;28;20531;-78
2021/09/04 03:35:43;;;;;;;43.05;19.27;;;8.60;99.90;;;;;;5094865;28;20128;-78
2021/09/04 03:38:09;;;;;;;45.40;19.13;;;8.60;99.90;;;;;;5091405;28;20048;-78
2021/09/04 03:40:35;;;;;;;60.22;22.17;;;8.60;99.90;;;;;;5076243;28;20458;-78
2021/09/04 03:43:01;;;;;;;44.05;18.00;;;8.70;99.90;;;;;;5084863;28;20027;-78
2021/09/04 03:45:26;;;;;;;40.58;15.90;;;8.70;99.90;;;;;;5076258;28;20486;-78
2021/09/04 03:47:52;;;;;;;30.55;15.35;;;8.70;99.90;;;;;;5076364;28;20040;-78
2021/09/04 03:50:17;;;;;;;46.72;15.43;;;8.70;99.90;;;;;;5076079;28;20016;-78
2021/09/04 03:52:43;;;;;;;36.83;15.77;;;8.60;99.90;;;;;;5076291;28;20028;-77
2021/09/04 03:55:09;;;;;;;138.20;24.38;;;8.60;99.90;;;;;;5079899;28;20027;-77
2021/09/04 03:57:35;;;;;;;74.70;22.98;;;8.60;99.90;;;;;;5096336;28;20026;-77
2021/09/04 04:00:01;;;;;;;80.63;22.98;;;8.60;99.90;;;;;;5087032;28;20036;-77
2021/09/04 04:02:26;;;;;;;53.72;22.27;;;8.60;99.90;;;;;;5075749;28;20528;-78
2021/09/04 04:04:52;;;;;;;58.78;21.05;;;8.70;99.90;;;;;;5088977;28;20040;-77
2021/09/04 04:07:17;;;;;;;51.10;17.85;;;8.70;99.90;;;;;;5074136;28;20021;-77
2021/09/04 04:09:44;;;;;;;57.47;17.45;;;8.70;99.90;;;;;;5093979;28;20024;-77
2021/09/04 04:12:10;;;;;;;41.35;16.40;;;8.70;99.90;;;;;;5094796;28;20020;-77
2021/09/04 04:14:36;;;;;;;79.47;19.73;;;8.70;99.90;;;;;;5085155;28;20032;-78
2021/09/04 04:17:02;;;;;;;97.45;22.20;;;8.70;99.90;;;;;;5084687;28;20024;-78
2021/09/04 04:19:28;;;;;;;55.85;19.63;;;8.60;99.90;;;;;;5075584;28;20099;-78
2021/09/04 04:21:54;;;;;;;114.40;24.15;;;8.60;99.90;;;;;;5074207;28;20017;-78
2021/09/04 04:24:19;;;;;;;111.70;25.65;;;8.60;99.90;;;;;;5087024;28;20553;-78
2021/09/04 04:26:45;;;;;;;43.47;20.33;;;8.60;99.90;;;;;;5094991;28;20017;-78
2021/09/04 04:29:10;;;;;;;82.35;25.80;;;8.70;99.90;;;;;;5095171;28;20472;-78
2021/09/04 04:31:38;;;;;;;46.60;21.85;;;8.80;99.90;;;;;;5076195;28;20028;-78
2021/09/04 04:34:04;;;;;;;47.03;21.67;;;8.90;99.90;;;;;;5075779;28;20029;-78
2021/09/04 04:36:30;;;;;;;58.65;22.45;;;9.00;99.90;;;;;;5081767;28;20470;-78
2021/09/04 04:38:56;;;;;;;43.47;19.73;;;9.00;99.90;;;;;;5078143;28;20020;-79
2021/09/04 04:41:22;;;;;;;51.10;18.13;;;9.00;99.90;;;;;;5077186;28;20720;-78
2021/09/04 04:43:47;;;;;;;141.43;23.10;;;9.00;99.90;;;;;;5084192;28;20027;-79
2021/09/04 04:46:13;;;;;;;92.53;19.45;;;9.00;99.90;;;;;;5093223;28;20020;-78
2021/09/04 04:48:39;;;;;;;47.83;18.42;;;8.90;99.90;;;;;;5075097;28;20047;-78
2021/09/04 04:51:05;;;;;;;68.85;18.77;;;8.90;99.90;;;;;;5074483;28;20020;-77
2021/09/04 04:53:31;;;;;;;67.47;20.38;;;9.00;99.90;;;;;;5079029;28;20016;-77
2021/09/04 04:55:56;;;;;;;87.35;21.92;;;8.90;99.90;;;;;;5095072;28;20089;-77
2021/09/04 04:58:22;;;;;;;112.68;22.63;;;9.00;99.90;;;;;;5095181;28;20024;-78
2021/09/04 05:00:48;;;;;;;46.63;21.13;;;9.00;99.90;;;;;;5095041;28;20020;-78
2021/09/04 05:03:14;;;;;;;50.80;19.20;;;9.10;99.90;;;;;;5095118;28;20530;-78
2021/09/04 05:05:40;;;;;;;125.05;25.17;;;9.10;99.90;;;;;;5094805;28;20032;-79
2021/09/04 05:08:05;;;;;;;234.57;31.77;;;9.20;99.90;;;;;;5093029;28;20025;-79
2021/09/04 05:10:31;;;;;;;95.18;24.05;;;9.30;99.90;;;;;;5089879;28;20469;-79
2021/09/04 05:12:57;;;;;;;39.83;20.10;;;9.30;99.90;;;;;;5088774;28;20112;-79
2021/09/04 05:15:23;;;;;;;142.98;29.23;;;9.40;99.90;;;;;;5090761;28;20433;-78
2021/09/04 05:17:48;;;;;;;104.07;25.45;;;9.40;99.90;;;;;;5089810;28;20068;-78
2021/09/04 05:20:14;;;;;;;59.13;21.23;;;9.50;99.90;;;;;;5091813;28;20028;-78
2021/09/04 05:22:43;;;;;;;111.75;29.23;;;9.50;99.90;;;;;;5090245;28;20043;-78
2021/09/04 05:25:09;;;;;;;55.13;25.40;;;9.60;99.90;;;;;;5085656;28;20028;-79
2021/09/04 05:27:34;;;;;;;52.58;24.58;;;9.80;99.90;;;;;;5087836;28;20384;-78
2021/09/04 05:30:00;;;;;;;81.68;27.48;;;9.90;99.90;;;;;;5071792;28;20024;-78
2021/09/04 05:32:26;;;;;;;78.22;25.92;;;10.00;99.90;;;;;;5072869;28;20036;-77
2021/09/04 05:34:51;;;;;;;49.97;22.40;;;10.10;99.90;;;;;;5071769;28;20028;-78
2021/09/04 05:37:20;;;;;;;56.28;24.02;;;10.30;99.90;;;;;;5070983;28;20064;-78
2021/09/04 05:39:46;;;;;;;54.03;22.85;;;10.40;99.90;;;;;;5071518;28;20024;-78
2021/09/04 05:42:12;;;;;;;49.80;22.33;;;10.60;99.90;;;;;;5071833;28;20500;-79
2021/09/04 05:44:37;;;;;;;48.47;21.42;;;10.60;99.90;;;;;;5076771;28;20028;-78
2021/09/04 05:47:03;;;;;;;46.20;23.48;;;10.70;99.90;;;;;;5092317;28;20035;-79
2021/09/04 05:49:29;;;;;;;44.35;24.02;;;10.90;99.90;;;;;;5092364;28;20476;-78
2021/09/04 05:51:55;;;;;;;42.17;25.88;;;11.00;99.90;;;;;;5089493;28;20119;-78
2021/09/04 05:54:20;;;;;;;42.95;25.42;;;11.10;99.90;;;;;;5091322;28;20016;-77
2021/09/04 05:56:46;;;;;;;40.65;24.77;;;11.30;99.90;;;;;;5088655;28;20397;-78
2021/09/04 05:59:11;;;;;;;38.42;23.08;;;11.50;99.90;;;;;;5077363;28;20643;-79
2021/09/04 06:01:38;;;;;;;39.97;25.00;;;11.60;99.90;;;;;;5070388;28;20055;-79
2021/09/04 06:04:03;;;;;;;40.42;25.13;;;11.90;99.90;;;;;;5083755;28;20107;-79
2021/09/04 06:06:29;;;;;;;43.10;26.60;;;12.10;99.90;;;;;;5089179;28;20524;-78
2021/09/04 06:08:57;;;;;;;43.90;25.65;;;12.30;99.90;;;;;;5090533;28;20031;-78
2021/09/04 06:11:22;;;;;;;37.30;24.60;;;12.40;99.90;;;;;;5085347;28;20040;-79
2021/09/04 06:13:48;;;;;;;43.30;26.08;;;12.50;99.90;;;;;;5089364;28;20023;-78
2021/09/04 06:16:14;;;;;;;39.33;26.08;;;12.60;99.90;;;;;;5090067;28;20389;-78
2021/09/04 06:18:39;;;;;;;41.03;25.42;;;12.70;99.90;;;;;;5089198;28;20647;-78
2021/09/04 06:21:05;;;;;;;37.75;25.02;;;12.80;99.90;;;;;;5089625;28;20031;-78
2021/09/04 06:23:31;;;;;;;43.25;27.50;;;12.80;99.90;;;;;;5083723;28;20111;-79
2021/09/04 06:25:56;;;;;;;38.50;25.13;;;13.00;99.90;;;;;;5073926;28;20500;-79
2021/09/04 06:28:22;;;;;;;48.10;29.10;;;13.10;99.90;;;;;;5089538;28;20043;-78
2021/09/04 06:30:47;;;;;;;45.95;30.80;;;13.20;99.90;;;;;;5088802;28;20481;-78
2021/09/04 06:33:13;;;;;;;46.53;31.05;;;13.40;99.90;;;;;;5089894;28;20154;-78
2021/09/04 06:35:39;;;;;;;46.78;30.75;;;13.40;99.90;;;;;;5088514;28;20099;-78
2021/09/04 06:38:04;;;;;;;47.78;29.30;;;13.50;99.90;;;;;;5090982;28;20477;-78
2021/09/04 06:40:31;;;;;;;45.38;29.88;;;13.60;99.90;;;;;;5090305;28;20028;-78
2021/09/04 06:42:56;;;;;;;48.45;29.35;;;13.70;99.90;;;;;;5089541;28;20090;-78
2021/09/04 06:45:22;;;;;;;49.28;31.33;;;13.80;99.90;;;;;;5090620;28;20047;-77
2021/09/04 06:47:48;;;;;;;48.15;29.85;;;13.90;99.90;;;;;;5090684;28;20500;-78
2021/09/04 06:50:14;;;;;;;42.70;28.58;;;14.10;99.90;;;;;;5090010;28;20382;-78
2021/09/04 06:52:39;;;;;;;38.85;26.08;;;14.20;99.90;;;;;;5089776;28;20039;-78
2021/09/04 06:55:05;;;;;;;42.58;27.80;;;14.30;99.90;;;;;;5087518;28;20035;-78
2021/09/04 06:57:32;;;;;;;42.47;27.00;;;14.50;99.90;;;;;;5078429;28;20067;-79
2021/09/04 06:59:58;;;;;;;36.33;24.92;;;14.60;99.90;;;;;;5074012;28;20012;-79
2021/09/04 07:02:23;;;;;;;43.53;27.20;;;14.80;99.90;;;;;;5084889;28;20390;-78
2021/09/04 07:04:49;;;;;;;45.50;28.38;;;15.10;99.90;;;;;;5088215;28;20019;-78
2021/09/04 07:07:14;;;;;;;40.22;27.17;;;15.30;99.90;;;;;;5089476;28;20035;-80
2021/09/04 07:09:40;;;;;;;41.22;26.15;;;15.60;99.90;;;;;;5091375;28;20426;-79
2021/09/04 07:12:06;;;;;;;41.15;25.33;;;15.70;99.90;;;;;;5090338;28;20040;-80
2021/09/04 07:14:31;;;;;;;36.70;25.63;;;15.80;99.90;;;;;;5086061;28;20047;-80
2021/09/04 07:16:57;;;;;;;35.42;20.90;;;15.90;99.90;;;;;;5072922;28;20390;-81
2021/09/04 07:19:23;;;;;;;28.85;19.27;;;16.10;99.90;;;;;;5082816;28;20116;-80
2021/09/04 07:21:48;;;;;;;27.60;20.08;;;16.20;99.90;;;;;;5082933;28;20028;-81
2021/09/04 07:24:14;;;;;;;26.20;18.88;;;16.30;99.90;;;;;;5086534;28;20071;-80
2021/09/04 07:26:39;;;;;;;28.30;19.65;;;16.50;99.90;;;;;;5087557;28;20581;-80
2021/09/04 07:29:05;;;;;;;32.83;19.85;;;16.70;99.90;;;;;;5092913;28;20401;-80
2021/09/04 07:31:31;;;;;;;31.52;19.95;;;16.70;99.90;;;;;;5093469;28;20165;-81
2021/09/04 07:33:56;;;;;;;27.10;17.60;;;16.80;99.90;;;;;;5094124;28;20397;-81
2021/09/04 07:36:22;;;;;;;28.42;18.15;;;16.90;99.90;;;;;;5094555;28;20035;-81
2021/09/04 07:38:48;;;;;;;45.78;18.77;;;16.90;99.90;;;;;;5079205;28;20031;-79
2021/09/04 07:41:13;;;;;;;24.50;17.27;;;16.90;99.90;;;;;;5083432;28;20092;-81
2021/09/04 07:43:39;;;;;;;29.52;17.58;;;17.10;99.90;;;;;;5090381;28;20040;-81
2021/09/04 07:46:04;;;;;;;22.60;16.17;;;17.40;99.90;;;;;;5082482;28;20021;-81
2021/09/04 07:48:30;;;;;;;27.73;15.80;;;17.50;99.90;;;;;;5082499;28;20070;-80
2021/09/04 07:50:56;;;;;;;26.15;15.75;;;17.60;99.90;;;;;;5096160;28;20465;-81
2021/09/04 07:53:22;;;;;;;25.58;16.02;;;17.60;99.90;;;;;;5095089;28;20024;-81
2021/09/04 07:55:48;;;;;;;27.00;15.73;;;17.50;99.90;;;;;;5096154;28;20020;-81
2021/09/04 07:58:14;;;;;;;23.48;14.80;;;17.50;99.90;;;;;;5094772;28;20028;-80
2021/09/04 08:00:40;;;;;;;24.40;15.52;;;17.60;99.90;;;;;;5085625;28;20039;-81
2021/09/04 08:03:06;;;;;;;24.02;16.92;;;17.80;99.90;;;;;;5095901;28;20064;-81
2021/09/04 08:05:31;;;;;;;23.17;15.65;;;17.70;99.90;;;;;;5095972;28;20024;-81
2021/09/04 08:07:57;;;;;;;20.98;15.35;;;17.90;99.90;;;;;;5095531;28;20062;-80
2021/09/04 08:10:23;;;;;;;19.30;14.50;;;18.00;99.90;;;;;;5095658;28;20019;-81
2021/09/04 08:12:49;;;;;;;30.05;14.50;;;18.20;99.90;;;;;;5092748;28;20031;-80
2021/09/04 08:15:14;;;;;;;24.77;15.23;;;18.40;99.90;;;;;;5085923;28;20458;-80
2021/09/04 08:17:40;;;;;;;26.20;14.25;;;18.60;99.90;;;;;;5091179;28;20020;-80
2021/09/04 08:20:06;;;;;;;23.77;14.77;;;18.40;99.90;;;;;;5088375;28;20465;-81
2021/09/04 08:22:32;;;;;;;26.45;15.20;;;18.50;99.90;;;;;;5076641;28;20064;-81
2021/09/04 08:24:58;;;;;;;22.63;14.75;;;18.60;99.90;;;;;;5086392;28;20101;-81
2021/09/04 08:27:23;;;;;;;24.25;14.85;;;18.90;99.90;;;;;;5074079;28;20107;-81
2021/09/04 08:29:49;;;;;;;25.85;14.70;;;19.00;99.90;;;;;;5093227;28;20063;-81
2021/09/04 08:32:15;;;;;;;22.58;14.35;;;19.00;99.90;;;;;;5093947;28;20027;-81
2021/09/04 08:34:40;;;;;;;22.33;15.18;;;18.50;99.90;;;;;;5094614;28;20055;-81
2021/09/04 08:37:06;;;;;;;24.08;15.18;;;18.30;99.90;;;;;;5093837;28;20024;-81
2021/09/04 08:39:32;;;;;;;20.52;13.40;;;18.20;99.90;;;;;;5093242;28;20088;-81
2021/09/04 08:41:58;;;;;;;20.88;14.60;;;18.20;99.90;;;;;;5078039;28;20019;-81
2021/09/04 08:44:24;;;;;;;20.40;14.45;;;18.10;99.90;;;;;;5091201;28;20020;-80
2021/09/04 08:46:51;;;;;;;19.88;14.05;;;18.10;99.90;;;;;;5079149;28;20111;-81
2021/09/04 08:49:18;;;;;;;21.73;14.82;;;18.40;99.90;;;;;;5084926;28;20060;-81
2021/09/04 08:51:45;;;;;;;26.30;15.43;;;18.50;99.90;;;;;;5090719;28;20463;-80
2021/09/04 08:54:12;;;;;;;19.70;13.88;;;18.40;99.90;;;;;;5079208;28;20042;-80
2021/09/04 08:56:38;;;;;;;19.58;14.82;;;18.30;99.90;;;;;;5070819;28;20448;-80
2021/09/04 08:59:04;;;;;;;23.08;16.23;;;18.20;99.90;;;;;;5079182;28;20032;-78
2021/09/04 09:01:30;;;;;;;24.15;16.90;;;18.30;99.90;;;;;;5092725;28;20066;-78
2021/09/04 09:04:03;;;;;;;29.17;17.65;;;18.10;99.90;;;;;;5088557;28;20077;-79
2021/09/04 09:06:35;;;;;;;25.60;17.58;;;18.00;99.90;;;;;;5065812;28;20040;-80
2021/09/04 09:09:18;;;;;;;23.95;17.40;;;18.00;99.90;;;;;;5079805;28;20037;-78
2021/09/04 09:11:44;;;;;;;30.65;19.20;;;17.90;99.90;;;;;;5090211;28;20115;-78
2021/09/04 09:14:10;;;;;;;26.05;18.27;;;17.70;99.90;;;;;;5090526;28;20028;-79
2021/09/04 09:16:54;;;;;;;29.17;17.92;;;17.60;99.90;;;;;;5091310;28;20432;-78
2021/09/04 09:19:38;;;;;;;28.23;18.02;;;17.70;99.90;;;;;;5079151;28;20119;-77
2021/09/04 09:22:15;;;;;;;27.17;18.13;;;17.80;99.90;;;;;;5088800;28;20032;-77
2021/09/04 09:24:41;;;;;;;23.77;16.95;;;17.80;99.90;;;;;;5088178;28;20465;-77
2021/09/04 09:27:07;;;;;;;26.00;16.77;;;17.90;99.90;;;;;;5080836;28;20044;-78
2021/09/04 09:29:44;;;;;;;24.83;16.92;;;17.80;99.90;;;;;;5089002;28;20092;-79
2021/09/04 09:32:12;;;;;;;28.77;17.25;;;18.00;99.90;;;;;;5084530;28;20172;-78
2021/09/04 09:34:40;;;;;;;25.17;16.23;;;18.20;99.90;;;;;;5083245;28;20051;-78
2021/09/04 09:37:10;;;;;;;36.30;17.38;;;18.40;99.90;;;;;;5090541;28;20037;-77
2021/09/04 09:39:38;;;;;;;19.27;15.18;;;18.40;99.90;;;;;;5091217;28;20028;-77
2021/09/04 09:42:06;;;;;;;23.60;15.65;;;18.20;99.90;;;;;;5089711;28;20028;-77
2021/09/04 09:44:36;;;;;;;25.58;16.38;;;18.00;99.90;;;;;;5091059;28;20081;-77
2021/09/04 09:47:03;;;;;;;24.65;15.27;;;18.00;99.90;;;;;;5088587;28;20086;-77
2021/09/04 09:49:36;;;;;;;22.23;15.48;;;18.10;99.90;;;;;;5089387;28;20032;-77
2021/09/04 09:52:06;;;;;;;21.45;15.05;;;18.20;99.90;;;;;;5087305;28;20149;-77
2021/09/04 09:54:33;;;;;;;22.27;15.02;;;18.40;99.90;;;;;;5089964;28;20044;-77
2021/09/04 09:57:02;;;;;;;25.80;15.48;;;18.60;99.90;;;;;;5087709;28;20032;-77
2021/09/04 09:59:28;;;;;;;21.60;15.38;;;18.80;99.90;;;;;;5089931;28;20024;-77
2021/09/04 10:01:56;;;;;;;22.27;14.60;;;18.90;99.90;;;;;;5088416;28;20036;-77
2021/09/04 10:04:29;;;;;;;19.75;13.93;;;19.00;99.90;;;;;;5089592;28;20074;-77
2021/09/04 10:06:55;;;;;;;21.00;14.10;;;19.00;98.40;;;;;;5071881;28;20139;-77
2021/09/04 10:09:24;;;;;;;21.30;14.05;;;19.20;96.70;;;;;;5090372;28;20043;-78
2021/09/04 10:11:51;;;;;;;20.90;13.77;;;19.30;95.10;;;;;;5090010;28;20075;-78
2021/09/04 10:14:21;;;;;;;20.38;13.85;;;19.50;89.50;;;;;;5092056;28;20062;-78
2021/09/04 10:16:51;;;;;;;21.00;13.23;;;19.40;89.00;;;;;;5089346;28;20527;-79
2021/09/04 10:19:18;;;;;;;19.20;12.95;;;19.80;87.70;;;;;;5090107;28;20021;-77
2021/09/04 10:21:44;;;;;;;17.02;12.77;;;20.00;88.50;;;;;;5090848;28;20459;-77
2021/09/04 10:24:10;;;;;;;17.13;11.93;;;20.10;84.10;;;;;;5091602;28;20020;-78
2021/09/04 10:26:42;;;;;;;20.50;13.05;;;20.30;86.80;;;;;;5091630;28;20037;-78
2021/09/04 10:29:15;;;;;;;20.35;11.90;;;20.00;88.30;;;;;;5089977;28;20036;-77
2021/09/04 10:31:44;;;;;;;19.30;12.88;;;19.80;89.10;;;;;;5091318;28;20031;-78
2021/09/04 10:34:16;;;;;;;19.80;13.70;;;19.70;85.00;;;;;;5085738;28;20575;-77
2021/09/04 10:37:03;;;;;;;24.08;17.27;;;19.50;90.30;;;;;;5092231;28;20028;-77
2021/09/04 10:39:54;;;;;;;20.92;13.13;;;19.40;96.60;;;;;;5083561;28;20049;-77
2021/09/04 10:42:34;;;;;;;20.98;13.80;;;19.10;99.90;;;;;;5069305;28;20396;-78
2021/09/04 10:45:15;;;;;;;21.23;13.73;;;19.00;98.90;;;;;;5070072;28;20174;-77
2021/09/04 10:47:52;;;;;;;21.77;13.93;;;19.10;98.10;;;;;;5083103;28;20028;-77
2021/09/04 10:50:31;;;;;;;17.42;12.80;;;19.30;96.40;;;;;;5091239;28;20477;-77
2021/09/04 10:53:07;;;;;;;21.55;13.35;;;19.50;93.20;;;;;;5091118;28;20028;-77
2021/09/04 10:55:38;;;;;;;17.13;11.93;;;19.70;88.10;;;;;;5072850;28;20089;-77
2021/09/04 10:58:20;;;;;;;15.90;11.98;;;19.90;88.60;;;;;;5073604;28;20025;-77
2021/09/04 11:00:48;;;;;;;19.92;12.48;;;20.20;88.90;;;;;;5080789;28;20081;-77
2021/09/04 11:03:17;;;;;;;18.35;12.32;;;20.20;82.90;;;;;;5088276;28;20466;-77
2021/09/04 11:05:44;;;;;;;16.10;11.88;;;20.40;82.20;;;;;;5072760;28;20097;-77
2021/09/04 11:08:11;;;;;;;17.63;11.88;;;20.40;81.80;;;;;;5075418;28;20401;-77
2021/09/04 11:10:42;;;;;;;17.60;11.88;;;19.50;85.10;;;;;;5091571;28;20020;-77
2021/09/04 11:13:14;;;;;;;21.17;12.25;;;19.40;91.00;;;;;;5088136;28;20107;-77
2021/09/04 11:15:44;;;;;;;20.75;12.88;;;19.30;89.80;;;;;;5092891;28;20486;-77
2021/09/04 11:18:12;;;;;;;21.95;12.70;;;19.20;90.80;;;;;;5093003;28;20016;-78
2021/09/04 11:20:45;;;;;;;16.23;12.30;;;19.10;94.10;;;;;;5092754;28;20489;-77
2021/09/04 11:23:10;;;;;;;14.32;12.00;;;19.00;92.70;;;;;;5092906;28;20028;-77
2021/09/04 11:25:40;;;;;;;26.05;14.02;;;19.10;92.70;;;;;;5091361;28;20077;-77
2021/09/04 11:28:06;;;;;;;17.35;12.68;;;19.00;95.00;;;;;;5092713;28;20035;-78
2021/09/04 11:30:33;;;;;;;18.55;12.35;;;19.00;96.80;;;;;;5092783;28;20028;-77
2021/09/04 11:33:16;;;;;;;20.98;12.30;;;19.00;93.90;;;;;;5090360;28;20119;-77
2021/09/04 11:35:46;;;;;;;21.13;13.18;;;19.40;97.80;;;;;;5086749;28;20028;-77
2021/09/04 11:38:12;;;;;;;20.77;12.35;;;19.50;91.20;;;;;;5085208;28;20036;-77
2021/09/04 11:40:37;;;;;;;16.00;11.73;;;19.80;90.00;;;;;;5072351;28;20029;-77
2021/09/04 11:43:05;;;;;;;17.50;11.57;;;19.80;87.00;;;;;;5071110;28;20025;-78
2021/09/04 11:45:32;;;;;;;17.48;12.77;;;19.80;88.70;;;;;;5070796;28;20029;-77
2021/09/04 11:48:04;;;;;;;19.33;12.93;;;19.70;87.10;;;;;;5072495;28;20060;-77
2021/09/04 11:50:31;;;;;;;16.20;11.13;;;19.50;84.70;;;;;;5088770;28;20381;-77
2021/09/04 11:52:58;;;;;;;17.20;10.50;;;19.40;79.70;;;;;;5092775;28;20031;-78
2021/09/04 11:55:29;;;;;;;20.05;12.15;;;19.20;82.30;;;;;;5093514;28;20076;-77
2021/09/04 11:58:10;;;;;;;19.50;11.65;;;19.30;85.20;;;;;;5096451;28;20051;-77
2021/09/04 12:00:41;;;;;;;16.48;11.15;;;19.30;82.10;;;;;;5093133;28;20020;-77
2021/09/04 12:03:13;;;;;;;19.48;12.27;;;19.50;78.80;;;;;;5074963;28;20547;-78
2021/09/04 12:05:42;;;;;;;;;;;19.60;86.80;;;;;;5091529;28;20021;-79
2021/09/04 12:08:23;;;;;;;16.20;11.25;;;19.60;88.60;;;;;;5090536;28;19965;-77
2021/09/04 12:10:49;;;;;;;17.48;11.20;;;19.60;91.10;;;;;;5092666;28;20016;-77
2021/09/04 12:13:21;;;;;;;17.38;11.98;;;19.80;87.10;;;;;;5089671;28;20474;-77
2021/09/04 12:15:51;;;;;;;16.27;11.60;;;19.70;87.80;;;;;;5081641;28;20428;-77
2021/09/04 12:18:29;;;;;;;16.88;12.25;;;19.50;87.40;;;;;;5092307;28;20108;-77
2021/09/04 12:20:55;;;;;;;17.75;11.95;;;19.20;87.70;;;;;;5086984;28;20028;-77
2021/09/04 12:23:24;;;;;;;20.15;12.45;;;19.30;88.80;;;;;;5085099;28;20027;-78
2021/09/04 12:26:03;;;;;;;21.25;11.38;;;19.20;86.40;;;;;;5095650;28;20028;-77
2021/09/04 12:28:29;;;;;;;13.73;10.50;;;19.30;87.70;;;;;;5086141;28;20032;-77
2021/09/04 12:31:08;;;;;;;19.75;12.18;;;19.40;86.00;;;;;;5086812;28;20460;-77
2021/09/04 12:33:58;;;;;;;16.05;11.13;;;19.50;86.00;;;;;;5095920;28;20024;-77